This is the latest recevied weather packets stored in our database for station/object K2CCS. If no packets are shown the sender has not sent any weather packets the latest 10 day(s).
| Time | Temp. | Humidity | Pressure | Rain* | Wind** | Luminosity | Snow |
|---|---|---|---|---|---|---|---|
| 1778271453 | 11.67° C | 58% | 1014.9 hPa | 0 mm | - | 147 W/m² | - |
| 1778271150 | 11.67° C | 55% | 1014.6 hPa | 0 mm | - | 581 W/m² | - |
| 1778270847 | 11.67° C | 54% | 1014.5 hPa | 0 mm | - | 266 W/m² | - |
| 1778270543 | 12.22° C | 53% | 1014.5 hPa | 0 mm | - | 327 W/m² | - |
| 1778270239 | 11.67° C | 54% | 1014.6 hPa | 0 mm | - | 398 W/m² | - |
| 1778269935 | 12.22° C | 55% | 1014.5 hPa | 0 mm | - | 193 W/m² | - |
| 1778269632 | 12.22° C | 55% | 1014.6 hPa | 0 mm | - | 216 W/m² | - |
| 1778269329 | 12.22° C | 53% | 1014.5 hPa | 0 mm | - | 158 W/m² | - |
| 1778269026 | 12.78° C | 49% | 1014.2 hPa | 0 mm | - | 171 W/m² | - |
| 1778268723 | 13.89° C | 47% | 1014.1 hPa | 0 mm | - | 186 W/m² | - |
| 1778268419 | 13.33° C | 44% | 1014.3 hPa | 0 mm | - | 478 W/m² | - |
| 1778268117 | 13.89° C | 43% | 1014 hPa | 0 mm | - | 225 W/m² | - |
| 1778267814 | 13.33° C | 44% | 1014.3 hPa | 0 mm | - | 267 W/m² | - |
| 1778267510 | 13.33° C | 43% | 1014.2 hPa | 0 mm | - | 332 W/m² | - |
| 1778267208 | 13.33° C | 46% | 1014.1 hPa | 0 mm | - | 253 W/m² | - |
| 1778266904 | 12.78° C | 45% | 1014.1 hPa | 0 mm | - | 448 W/m² | - |
| 1778266601 | 12.78° C | 43% | 1013.9 hPa | 0 mm | - | 91 W/m² | - |
| 1778266298 | 12.78° C | 43% | 1014 hPa | 0 mm | - | 59 W/m² | - |
| 1778265995 | 12.78° C | 42% | 1013.7 hPa | 0 mm | - | 84 W/m² | - |
| 1778265692 | 13.89° C | 42% | 1013.9 hPa | 0 mm | - | 137 W/m² | - |
| 1778265389 | 13.89° C | 38% | 1013.8 hPa | 0 mm | - | 203 W/m² | - |
| 1778265085 | 13.33° C | 40% | 1013.9 hPa | 0 mm | - | 609 W/m² | - |
| 1778264781 | 13.89° C | 39% | 1014.1 hPa | 0 mm | - | 269 W/m² | - |
| 1778264478 | 14.44° C | 40% | 1014 hPa | 0 mm | - | 217 W/m² | - |
| 1778264173 | 13.33° C | 40% | 1014.2 hPa | 0 mm | - | 766 W/m² | - |
* Rain latest hour (hover to see other rain measurements)
** Current wind speed in m/s (hover to see current wind gust speed)